sensor_id;sensor_type;location;lat;lon;timestamp;pressure;altitude;pressure_sealevel;temperature;humidity
38038;BME280;23843;51.320;12.340;2023-02-20T05:31:51;100861.19;;;6.81;100.00
38038;BME280;23843;51.320;12.340;2023-02-20T05:34:17;100866.56;;;6.78;100.00
38038;BME280;23843;51.320;12.340;2023-02-20T05:36:45;100864.94;;;6.74;100.00
38038;BME280;23843;51.320;12.340;2023-02-20T05:39:19;100858.72;;;6.77;100.00
38038;BME280;23843;51.320;12.340;2023-02-20T05:44:18;100865.69;;;6.78;100.00
38038;BME280;23843;51.320;12.340;2023-02-20T05:46:45;100879.88;;;6.74;100.00
38038;BME280;23843;51.320;12.340;2023-02-20T05:49:13;100880.63;;;6.77;100.00
38038;BME280;23843;51.320;12.340;2023-02-20T05:51:41;100876.16;;;6.81;100.00
38038;BME280;23843;51.320;12.340;2023-02-20T05:54:08;100864.75;;;6.80;100.00
38038;BME280;23843;51.320;12.340;2023-02-20T05:56:34;100857.78;;;6.78;100.00
38038;BME280;23843;51.320;12.340;2023-02-20T05:59:00;100864.75;;;6.80;100.00
38038;BME280;23843;51.320;12.340;2023-02-20T06:01:28;100862.13;;;6.80;100.00
38038;BME280;23843;51.320;12.340;2023-02-20T06:03:56;100859.69;;;6.73;100.00
38038;BME280;23843;51.320;12.340;2023-02-20T06:06:30;100854.41;;;6.74;100.00
38038;BME280;23843;51.320;12.340;2023-02-20T06:08:56;100842.91;;;6.77;100.00
38038;BME280;23843;51.320;12.340;2023-02-20T06:11:21;100827.97;;;6.77;100.00
38038;BME280;23843;51.320;12.340;2023-02-20T06:13:48;100833.47;;;6.70;100.00
38038;BME280;23843;51.320;12.340;2023-02-20T06:16:21;100841.13;;;6.77;100.00
38038;BME280;23843;51.320;12.340;2023-02-20T06:18:51;100824.50;;;6.75;100.00
38038;BME280;23843;51.320;12.340;2023-02-20T06:21:18;100823.75;;;6.72;100.00
38038;BME280;23843;51.320;12.340;2023-02-20T06:23:45;100829.97;;;6.69;100.00
38038;BME280;23843;51.320;12.340;2023-02-20T06:26:11;100833.47;;;6.70;100.00
38038;BME280;23843;51.320;12.340;2023-02-20T06:28:37;100821.16;;;6.70;100.00
38038;BME280;23843;51.320;12.340;2023-02-20T06:31:03;100816.69;;;6.74;100.00
38038;BME280;23843;51.320;12.340;2023-02-20T06:33:29;100804.53;;;6.68;100.00
38038;BME280;23843;51.320;12.340;2023-02-20T06:35:55;100793.13;;;6.69;100.00
38038;BME280;23843;51.320;12.340;2023-02-20T06:38:22;100791.16;;;6.76;100.00
38038;BME280;23843;51.320;12.340;2023-02-20T06:40:49;100791.09;;;6.77;100.00
38038;BME280;23843;51.320;12.340;2023-02-20T06:43:17;100792.88;;;6.77;100.00
38038;BME280;23843;51.320;12.340;2023-02-20T06:45:43;100800.75;;;6.78;100.00
38038;BME280;23843;51.320;12.340;2023-02-20T06:48:09;100798.00;;;6.81;100.00
38038;BME280;23843;51.320;12.340;2023-02-20T06:50:35;100808.38;;;6.86;100.00
38038;BME280;23843;51.320;12.340;2023-02-20T06:53:00;100815.28;;;6.90;100.00
38038;BME280;23843;51.320;12.340;2023-02-20T06:55:26;100804.75;;;6.90;100.00
38038;BME280;23843;51.320;12.340;2023-02-20T06:57:53;100819.78;;;6.86;100.00
38038;BME280;23843;51.320;12.340;2023-02-20T07:00:19;100810.75;;;6.95;100.00
38038;BME280;23843;51.320;12.340;2023-02-20T07:02:44;100808.81;;;7.00;100.00
38038;BME280;23843;51.320;12.340;2023-02-20T07:05:11;100790.28;;;7.03;100.00
38038;BME280;23843;51.320;12.340;2023-02-20T07:07:37;100793.75;;;7.04;100.00
38038;BME280;23843;51.320;12.340;2023-02-20T07:10:03;100786.78;;;7.03;100.00
38038;BME280;23843;51.320;12.340;2023-02-20T07:12:29;100785.16;;;6.99;100.00
38038;BME280;23843;51.320;12.340;2023-02-20T07:14:56;100793.88;;;7.01;100.00
38038;BME280;23843;51.320;12.340;2023-02-20T07:17:21;100801.06;;;6.96;100.00
38038;BME280;23843;51.320;12.340;2023-02-20T07:19:47;100813.13;;;7.03;100.00
38038;BME280;23843;51.320;12.340;2023-02-20T07:22:12;100790.41;;;6.99;100.00
38038;BME280;23843;51.320;12.340;2023-02-20T07:24:38;100785.16;;;6.99;100.00
38038;BME280;23843;51.320;12.340;2023-02-20T07:27:03;100792.88;;;7.05;100.00
38038;BME280;23843;51.320;12.340;2023-02-20T07:29:29;100790.13;;;7.08;100.00
38038;BME280;23843;51.320;12.340;2023-02-20T07:31:56;100782.94;;;7.13;100.00
38038;BME280;23843;51.320;12.340;2023-02-20T07:34:21;100776.69;;;7.16;100.00
38038;BME280;23843;51.320;12.340;2023-02-20T07:36:47;100775.31;;;7.31;100.00
38038;BME280;23843;51.320;12.340;2023-02-20T07:39:12;100781.09;;;7.42;100.00
38038;BME280;23843;51.320;12.340;2023-02-20T07:41:39;100773.19;;;7.67;100.00
38038;BME280;23843;51.320;12.340;2023-02-20T07:44:04;100768.13;;;7.86;100.00
38038;BME280;23843;51.320;12.340;2023-02-20T07:46:30;100766.97;;;8.17;100.00
38038;BME280;23843;51.320;12.340;2023-02-20T07:48:58;100772.06;;;8.46;100.00
38038;BME280;23843;51.320;12.340;2023-02-20T07:51:25;100748.19;;;8.71;100.00
38038;BME280;23843;51.320;12.340;2023-02-20T07:53:51;100755.44;;;8.88;100.00
38038;BME280;23843;51.320;12.340;2023-02-20T07:56:18;100743.72;;;8.94;100.00
38038;BME280;23843;51.320;12.340;2023-02-20T07:58:44;100737.81;;;9.09;100.00
38038;BME280;23843;51.320;12.340;2023-02-20T08:01:10;100727.94;;;8.92;100.00
38038;BME280;23843;51.320;12.340;2023-02-20T08:03:36;100726.53;;;8.84;100.00
38038;BME280;23843;51.320;12.340;2023-02-20T08:06:03;100713.16;;;8.66;100.00
38038;BME280;23843;51.320;12.340;2023-02-20T08:08:29;100713.84;;;8.71;100.00
38038;BME280;23843;51.320;12.340;2023-02-20T08:10:55;100728.94;;;8.68;100.00
38038;BME280;23843;51.320;12.340;2023-02-20T08:13:20;100726.47;;;8.63;100.00
38038;BME280;23843;51.320;12.340;2023-02-20T08:15:46;100715.19;;;8.60;100.00
38038;BME280;23843;51.320;12.340;2023-02-20T08:18:11;100711.50;;;8.64;100.00
38038;BME280;23843;51.320;12.340;2023-02-20T08:20:37;100722.88;;;8.66;100.00
38038;BME280;23843;51.320;12.340;2023-02-20T08:23:05;100718.63;;;8.62;100.00
38038;BME280;23843;51.320;12.340;2023-02-20T08:25:38;100705.25;;;8.66;100.00
38038;BME280;23843;51.320;12.340;2023-02-20T08:28:04;100709.38;;;8.73;100.00
38038;BME280;23843;51.320;12.340;2023-02-20T08:30:30;100708.59;;;8.70;100.00
38038;BME280;23843;51.320;12.340;2023-02-20T08:32:56;100704.66;;;8.80;100.00
38038;BME280;23843;51.320;12.340;2023-02-20T08:35:22;100695.97;;;8.78;100.00
38038;BME280;23843;51.320;12.340;2023-02-20T08:37:48;100707.63;;;8.72;100.00
38038;BME280;23843;51.320;12.340;2023-02-20T08:40:15;100712.66;;;8.78;100.00
38038;BME280;23843;51.320;12.340;2023-02-20T08:42:42;100707.56;;;8.74;100.00
38038;BME280;23843;51.320;12.340;2023-02-20T08:45:08;100694.72;;;8.87;100.00
38038;BME280;23843;51.320;12.340;2023-02-20T08:47:34;100674.31;;;8.90;100.00
38038;BME280;23843;51.320;12.340;2023-02-20T08:50:00;100688.19;;;8.95;100.00
38038;BME280;23843;51.320;12.340;2023-02-20T08:52:26;100685.97;;;8.85;100.00
38038;BME280;23843;51.320;12.340;2023-02-20T08:54:52;100689.75;;;8.99;100.00
38038;BME280;23843;51.320;12.340;2023-02-20T08:57:20;100692.81;;;9.11;100.00
38038;BME280;23843;51.320;12.340;2023-02-20T08:59:45;100697.97;;;9.14;100.00
38038;BME280;23843;51.320;12.340;2023-02-20T09:02:16;100698.38;;;9.25;100.00
38038;BME280;23843;51.320;12.340;2023-02-20T09:04:43;100703.53;;;9.28;100.00
38038;BME280;23843;51.320;12.340;2023-02-20T09:07:10;100699.69;;;9.35;100.00
38038;BME280;23843;51.320;12.340;2023-02-20T09:09:35;100694.91;;;9.43;100.00
38038;BME280;23843;51.320;12.340;2023-02-20T09:12:02;100696.38;;;9.51;100.00
38038;BME280;23843;51.320;12.340;2023-02-20T09:14:29;100707.84;;;9.51;100.00
38038;BME280;23843;51.320;12.340;2023-02-20T09:16:54;100693.19;;;9.63;100.00
38038;BME280;23843;51.320;12.340;2023-02-20T09:19:20;100691.47;;;9.62;99.86
38038;BME280;23843;51.320;12.340;2023-02-20T09:21:46;100699.66;;;9.76;100.00
38038;BME280;23843;51.320;12.340;2023-02-20T09:24:13;100695.25;;;9.75;100.00
38038;BME280;23843;51.320;12.340;2023-02-20T09:26:39;100696.25;;;9.73;100.00
38038;BME280;23843;51.320;12.340;2023-02-20T09:29:05;100687.41;;;9.74;100.00
38038;BME280;23843;51.320;12.340;2023-02-20T09:31:35;100689.28;;;9.72;99.93
38038;BME280;23843;51.320;12.340;2023-02-20T09:34:00;100690.91;;;9.74;100.00
38038;BME280;23843;51.320;12.340;2023-02-20T09:36:26;100695.94;;;9.80;98.98
38038;BME280;23843;51.320;12.340;2023-02-20T09:38:52;100692.84;;;9.90;100.00
38038;BME280;23843;51.320;12.340;2023-02-20T09:41:28;100696.44;;;9.89;98.03
38038;BME280;23843;51.320;12.340;2023-02-20T09:44:09;100694.19;;;10.00;96.50
38038;BME280;23843;51.320;12.340;2023-02-20T09:46:42;100697.81;;;10.16;94.79
38038;BME280;23843;51.320;12.340;2023-02-20T09:49:11;100705.19;;;10.28;94.23
38038;BME280;23843;51.320;12.340;2023-02-20T09:51:43;100702.91;;;10.40;93.27
38038;BME280;23843;51.320;12.340;2023-02-20T09:54:12;100702.16;;;10.55;93.50
38038;BME280;23843;51.320;12.340;2023-02-20T09:56:41;100693.72;;;10.66;91.30
38038;BME280;23843;51.320;12.340;2023-02-20T09:59:12;100691.16;;;10.99;94.18
38038;BME280;23843;51.320;12.340;2023-02-20T10:01:52;100684.78;;;11.03;85.04
38038;BME280;23843;51.320;12.340;2023-02-20T10:04:22;100680.56;;;10.99;83.15
38038;BME280;23843;51.320;12.340;2023-02-20T10:06:54;100660.75;;;11.06;82.86
38038;BME280;23843;51.320;12.340;2023-02-20T10:09:24;100654.75;;;11.20;83.48
38038;BME280;23843;51.320;12.340;2023-02-20T10:11:59;100663.13;;;11.46;81.64
38038;BME280;23843;51.320;12.340;2023-02-20T10:15:08;100642.34;;;11.54;78.30
38038;BME280;23843;51.320;12.340;2023-02-20T10:17:43;100650.75;;;11.62;80.17
38038;BME280;23843;51.320;12.340;2023-02-20T10:20:19;100638.69;;;11.56;77.81
38038;BME280;23843;51.320;12.340;2023-02-20T10:22:52;100623.44;;;11.60;76.92
38038;BME280;23843;51.320;12.340;2023-02-20T10:25:24;100629.47;;;11.64;76.62
38038;BME280;23843;51.320;12.340;2023-02-20T10:27:53;100627.66;;;11.64;75.63
38038;BME280;23843;51.320;12.340;2023-02-20T10:30:24;100608.22;;;11.64;74.69
38038;BME280;23843;51.320;12.340;2023-02-20T10:32:56;100603.09;;;11.76;73.19
38038;BME280;23843;51.320;12.340;2023-02-20T10:35:25;100589.75;;;11.78;73.38
38038;BME280;23843;51.320;12.340;2023-02-20T10:37:57;100583.22;;;11.68;72.63
38038;BME280;23843;51.320;12.340;2023-02-20T10:40:30;100563.88;;;11.66;71.63
38038;BME280;23843;51.320;12.340;2023-02-20T10:43:01;100576.47;;;11.78;72.77
38038;BME280;23843;51.320;12.340;2023-02-20T10:45:37;100573.66;;;11.97;72.72
38038;BME280;23843;51.320;12.340;2023-02-20T10:48:09;100584.25;;;11.81;71.79
38038;BME280;23843;51.320;12.340;2023-02-20T10:50:40;100584.84;;;11.86;71.01
38038;BME280;23843;51.320;12.340;2023-02-20T10:53:19;100594.56;;;11.87;71.27
38038;BME280;23843;51.320;12.340;2023-02-20T10:55:51;100588.84;;;11.95;71.50
38038;BME280;23843;51.320;12.340;2023-02-20T10:58:22;100580.59;;;11.99;68.92
38038;BME280;23843;51.320;12.340;2023-02-20T11:00:54;100573.41;;;12.17;70.14
38038;BME280;23843;51.320;12.340;2023-02-20T11:03:24;100570.22;;;12.27;70.51
38038;BME280;23843;51.320;12.340;2023-02-20T11:05:54;100566.22;;;12.19;69.50
38038;BME280;23843;51.320;12.340;2023-02-20T11:08:22;100556.44;;;12.20;67.01
38038;BME280;23843;51.320;12.340;2023-02-20T11:10:48;100546.25;;;12.12;68.97
38038;BME280;23843;51.320;12.340;2023-02-20T11:13:21;100555.66;;;12.18;68.10
38038;BME280;23843;51.320;12.340;2023-02-20T11:15:49;100539.28;;;12.26;68.07
38038;BME280;23843;51.320;12.340;2023-02-20T11:18:19;100532.00;;;12.29;68.18
38038;BME280;23843;51.320;12.340;2023-02-20T11:20:49;100531.22;;;12.27;68.01
38038;BME280;23843;51.320;12.340;2023-02-20T11:23:39;100525.66;;;12.32;69.08
38038;BME280;23843;51.320;12.340;2023-02-20T11:26:23;100514.16;;;12.31;68.60
38038;BME280;23843;51.320;12.340;2023-02-20T11:28:56;100509.41;;;12.22;70.25
38038;BME280;23843;51.320;12.340;2023-02-20T11:31:23;100502.00;;;12.27;69.91
38038;BME280;23843;51.320;12.340;2023-02-20T11:33:48;100491.56;;;12.24;69.76
38038;BME280;23843;51.320;12.340;2023-02-20T11:36:17;100481.88;;;12.23;68.49
38038;BME280;23843;51.320;12.340;2023-02-20T11:38:44;100467.81;;;12.21;68.88
38038;BME280;23843;51.320;12.340;2023-02-20T11:41:21;100461.00;;;12.17;69.35
38038;BME280;23843;51.320;12.340;2023-02-20T11:44:04;100465.00;;;12.24;70.46
38038;BME280;23843;51.320;12.340;2023-02-20T11:46:30;100449.72;;;12.28;69.80
38038;BME280;23843;51.320;12.340;2023-02-20T11:49:00;100442.53;;;12.30;69.24
38038;BME280;23843;51.320;12.340;2023-02-20T11:51:35;100438.44;;;12.24;70.62
38038;BME280;23843;51.320;12.340;2023-02-20T11:54:11;100404.88;;;12.37;70.49
38038;BME280;23843;51.320;12.340;2023-02-20T11:56:53;100428.00;;;12.21;67.89
38038;BME280;23843;51.320;12.340;2023-02-20T11:59:28;100434.28;;;12.34;69.05
38038;BME280;23843;51.320;12.340;2023-02-20T12:01:53;100439.59;;;12.34;69.86
38038;BME280;23843;51.320;12.340;2023-02-20T12:04:21;100440.53;;;12.33;68.46
38038;BME280;23843;51.320;12.340;2023-02-20T12:06:48;100424.13;;;12.41;67.60
38038;BME280;23843;51.320;12.340;2023-02-20T12:09:16;100423.09;;;12.43;67.01
38038;BME280;23843;51.320;12.340;2023-02-20T12:11:43;100429.09;;;12.47;68.34
38038;BME280;23843;51.320;12.340;2023-02-20T12:14:10;100420.53;;;12.42;67.53
38038;BME280;23843;51.320;12.340;2023-02-20T12:16:49;100416.75;;;12.46;67.78
38038;BME280;23843;51.320;12.340;2023-02-20T12:19:23;100413.34;;;12.44;69.70
38038;BME280;23843;51.320;12.340;2023-02-20T12:22:00;100420.25;;;12.47;69.36
38038;BME280;23843;51.320;12.340;2023-02-20T12:24:41;100421.19;;;12.46;70.38
38038;BME280;23843;51.320;12.340;2023-02-20T12:27:33;100418.38;;;12.49;70.61
38038;BME280;23843;51.320;12.340;2023-02-20T12:30:12;100409.78;;;12.43;70.71
38038;BME280;23843;51.320;12.340;2023-02-20T12:32:49;100418.72;;;12.42;71.20
38038;BME280;23843;51.320;12.340;2023-02-20T12:35:26;100407.75;;;12.49;73.30
38038;BME280;23843;51.320;12.340;2023-02-20T12:38:05;100408.66;;;12.48;73.30
38038;BME280;23843;51.320;12.340;2023-02-20T12:40:45;100409.81;;;12.58;74.08
38038;BME280;23843;51.320;12.340;2023-02-20T12:43:25;100402.25;;;12.66;74.12
38038;BME280;23843;51.320;12.340;2023-02-20T12:46:04;100394.16;;;12.68;75.17
38038;BME280;23843;51.320;12.340;2023-02-20T12:48:41;100395.03;;;12.68;75.46
38038;BME280;23843;51.320;12.340;2023-02-20T12:51:22;100395.59;;;12.73;75.76
38038;BME280;23843;51.320;12.340;2023-02-20T12:54:12;100381.91;;;12.79;76.23
38038;BME280;23843;51.320;12.340;2023-02-20T12:56:52;100382.47;;;12.84;76.62
38038;BME280;23843;51.320;12.340;2023-02-20T12:59:27;100383.03;;;12.90;77.74
38038;BME280;23843;51.320;12.340;2023-02-20T13:02:01;100366.91;;;12.93;78.54
38038;BME280;23843;51.320;12.340;2023-02-20T13:04:33;100372.66;;;12.99;78.83
38038;BME280;23843;51.320;12.340;2023-02-20T13:07:07;100374.09;;;13.05;79.34
38038;BME280;23843;51.320;12.340;2023-02-20T13:09:44;100375.03;;;13.04;80.49
38038;BME280;23843;51.320;12.340;2023-02-20T13:12:12;100367.81;;;13.06;81.34
38038;BME280;23843;51.320;12.340;2023-02-20T13:14:52;100358.78;;;13.09;81.92
38038;BME280;23843;51.320;12.340;2023-02-20T13:17:26;100357.22;;;13.19;81.74
38038;BME280;23843;51.320;12.340;2023-02-20T13:19:59;100364.06;;;13.23;81.49
38038;BME280;23843;51.320;12.340;2023-02-20T13:22:29;100370.44;;;13.20;82.25
38038;BME280;23843;51.320;12.340;2023-02-20T13:25:30;100365.88;;;13.22;82.98
38038;BME280;23843;51.320;12.340;2023-02-20T13:27:59;100362.75;;;13.30;83.01
38038;BME280;23843;51.320;12.340;2023-02-20T13:30:25;100360.09;;;13.30;82.61
38038;BME280;23843;51.320;12.340;2023-02-20T13:33:10;100371.78;;;13.27;82.59
38038;BME280;23843;51.320;12.340;2023-02-20T13:35:48;100354.09;;;13.26;80.82
38038;BME280;23843;51.320;12.340;2023-02-20T13:38:18;100362.38;;;13.22;82.18
38038;BME280;23843;51.320;12.340;2023-02-20T13:41:02;100363.78;;;13.27;82.19
38038;BME280;23843;51.320;12.340;2023-02-20T13:43:30;100362.38;;;13.22;82.39
38038;BME280;23843;51.320;12.340;2023-02-20T13:46:13;100347.03;;;13.25;82.50
38038;BME280;23843;51.320;12.340;2023-02-20T13:48:43;100346.19;;;13.25;82.49
38038;BME280;23843;51.320;12.340;2023-02-20T13:51:32;100345.34;;;13.24;83.27
38038;BME280;23843;51.320;12.340;2023-02-20T13:54:09;100346.28;;;13.38;82.37
38038;BME280;23843;51.320;12.340;2023-02-20T13:56:45;100352.00;;;13.32;83.39
38038;BME280;23843;51.320;12.340;2023-02-20T13:59:14;100340.53;;;13.17;83.17
38038;BME280;23843;51.320;12.340;2023-02-20T14:02:02;100342.72;;;13.10;85.17
38038;BME280;23843;51.320;12.340;2023-02-20T14:04:30;100341.97;;;13.08;85.46
38038;BME280;23843;51.320;12.340;2023-02-20T14:06:55;100342.94;;;13.07;85.96
38038;BME280;23843;51.320;12.340;2023-02-20T14:09:22;100346.25;;;13.11;86.79
38038;BME280;23843;51.320;12.340;2023-02-20T14:11:52;100347.66;;;13.02;87.18
38038;BME280;23843;51.320;12.340;2023-02-20T14:14:25;100352.25;;;13.00;87.00
38038;BME280;23843;51.320;12.340;2023-02-20T14:17:02;100361.56;;;13.07;88.40
38038;BME280;23843;51.320;12.340;2023-02-20T14:19:28;100366.13;;;13.05;88.56
38038;BME280;23843;51.320;12.340;2023-02-20T14:21:54;100360.19;;;13.14;88.19
38038;BME280;23843;51.320;12.340;2023-02-20T14:24:22;100354.41;;;13.07;89.08
38038;BME280;23843;51.320;12.340;2023-02-20T14:26:50;100342.72;;;13.10;88.95
38038;BME280;23843;51.320;12.340;2023-02-20T14:29:21;100341.22;;;13.06;91.29
38038;BME280;23843;51.320;12.340;2023-02-20T14:31:49;100349.69;;;12.98;90.52
38038;BME280;23843;51.320;12.340;2023-02-20T14:34:20;100336.69;;;12.94;92.50
38038;BME280;23843;51.320;12.340;2023-02-20T14:36:56;100324.91;;;12.98;92.71
38038;BME280;23843;51.320;12.340;2023-02-20T14:39:39;100325.09;;;12.95;93.31
38038;BME280;23843;51.320;12.340;2023-02-20T14:42:14;100323.69;;;12.89;94.61
38038;BME280;23843;51.320;12.340;2023-02-20T14:44:40;100327.41;;;12.87;94.32
38038;BME280;23843;51.320;12.340;2023-02-20T14:47:08;100328.06;;;12.90;93.97
38038;BME280;23843;51.320;12.340;2023-02-20T14:49:34;100314.22;;;12.85;95.24
38038;BME280;23843;51.320;12.340;2023-02-20T14:52:06;100330.84;;;12.74;96.63
38038;BME280;23843;51.320;12.340;2023-02-20T14:54:37;100333.69;;;12.71;96.94
38038;BME280;23843;51.320;12.340;2023-02-20T14:57:03;100332.44;;;12.77;100.00
38038;BME280;23843;51.320;12.340;2023-02-20T14:59:32;100322.19;;;12.85;98.37
38038;BME280;23843;51.320;12.340;2023-02-20T15:02:00;100323.72;;;12.75;98.38
38038;BME280;23843;51.320;12.340;2023-02-20T15:07:11;100326.19;;;12.78;99.58
38038;BME280;23843;51.320;12.340;2023-02-20T15:09:38;100325.59;;;12.73;99.50
38038;BME280;23843;51.320;12.340;2023-02-20T15:12:05;100325.94;;;12.68;100.00
38038;BME280;23843;51.320;12.340;2023-02-20T15:14:32;100335.88;;;12.64;100.00
38038;BME280;23843;51.320;12.340;2023-02-20T15:17:13;100341.00;;;12.68;100.00
38038;BME280;23843;51.320;12.340;2023-02-20T15:19:43;100350.00;;;12.65;100.00
38038;BME280;23843;51.320;12.340;2023-02-20T15:22:25;100347.75;;;12.59;100.00
38038;BME280;23843;51.320;12.340;2023-02-20T15:24:52;100360.84;;;12.62;100.00
38038;BME280;23843;51.320;12.340;2023-02-20T15:27:19;100352.88;;;12.62;100.00
38038;BME280;23843;51.320;12.340;2023-02-20T15:29:47;100361.97;;;12.58;100.00
38038;BME280;23843;51.320;12.340;2023-02-20T15:32:30;100358.75;;;12.53;100.00
38038;BME280;23843;51.320;12.340;2023-02-20T15:34:59;100363.69;;;12.59;100.00
38038;BME280;23843;51.320;12.340;2023-02-20T15:37:27;100365.78;;;12.54;100.00
38038;BME280;23843;51.320;12.340;2023-02-20T15:39:54;100371.28;;;12.51;100.00
38038;BME280;23843;51.320;12.340;2023-02-20T15:42:22;100369.78;;;12.47;100.00
38038;BME280;23843;51.320;12.340;2023-02-20T15:44:49;100374.13;;;12.48;100.00
38038;BME280;23843;51.320;12.340;2023-02-20T15:47:15;100381.06;;;12.50;100.00
38038;BME280;23843;51.320;12.340;2023-02-20T15:49:41;100385.59;;;12.48;100.00
38038;BME280;23843;51.320;12.340;2023-02-20T15:52:14;100376.31;;;12.41;100.00
38038;BME280;23843;51.320;12.340;2023-02-20T15:54:51;100391.59;;;12.37;100.00
38038;BME280;23843;51.320;12.340;2023-02-20T15:57:17;100392.34;;;12.39;100.00
38038;BME280;23843;51.320;12.340;2023-02-20T15:59:44;100393.84;;;12.43;100.00
38038;BME280;23843;51.320;12.340;2023-02-20T16:02:14;100403.56;;;12.45;100.00
38038;BME280;23843;51.320;12.340;2023-02-20T16:04:40;100405.44;;;12.42;100.00
38038;BME280;23843;51.320;12.340;2023-02-20T16:07:06;100396.50;;;12.43;100.00
38038;BME280;23843;51.320;12.340;2023-02-20T16:09:32;100394.06;;;12.40;100.00
38038;BME280;23843;51.320;12.340;2023-02-20T16:11:58;100387.03;;;12.39;100.00
38038;BME280;23843;51.320;12.340;2023-02-20T16:14:23;100393.59;;;12.34;100.00
38038;BME280;23843;51.320;12.340;2023-02-20T16:16:50;100389.78;;;12.38;100.00
38038;BME280;23843;51.320;12.340;2023-02-20T16:19:21;100389.00;;;12.36;100.00
38038;BME280;23843;51.320;12.340;2023-02-20T16:21:47;100375.84;;;12.34;100.00
38038;BME280;23843;51.320;12.340;2023-02-20T16:24:15;100382.69;;;12.24;100.00
38038;BME280;23843;51.320;12.340;2023-02-20T16:26:45;100379.72;;;12.14;100.00
38038;BME280;23843;51.320;12.340;2023-02-20T16:29:15;100369.53;;;12.07;100.00
38038;BME280;23843;51.320;12.340;2023-02-20T16:32:08;100374.47;;;11.98;100.00
38038;BME280;23843;51.320;12.340;2023-02-20T16:34:38;100383.47;;;11.96;100.00
38038;BME280;23843;51.320;12.340;2023-02-20T16:37:07;100381.06;;;11.91;100.00
38038;BME280;23843;51.320;12.340;2023-02-20T16:39:33;100386.69;;;12.01;100.00
38038;BME280;23843;51.320;12.340;2023-02-20T16:42:00;100386.78;;;11.99;100.00
38038;BME280;23843;51.320;12.340;2023-02-20T16:44:33;100392.47;;;11.93;100.00
38038;BME280;23843;51.320;12.340;2023-02-20T16:46:59;100397.59;;;11.96;100.00
38038;BME280;23843;51.320;12.340;2023-02-20T16:49:25;100398.34;;;11.98;100.00
38038;BME280;23843;51.320;12.340;2023-02-20T16:51:53;100397.59;;;11.96;100.00
38038;BME280;23843;51.320;12.340;2023-02-20T16:54:18;100411.44;;;12.02;100.00
38038;BME280;23843;51.320;12.340;2023-02-20T16:56:44;100422.78;;;11.89;100.00
38038;BME280;23843;51.320;12.340;2023-02-20T16:59:09;100425.09;;;11.95;100.00
38038;BME280;23843;51.320;12.340;2023-02-20T17:01:35;100432.78;;;11.84;100.00
38038;BME280;23843;51.320;12.340;2023-02-20T17:04:00;100435.81;;;11.78;100.00
38038;BME280;23843;51.320;12.340;2023-02-20T17:06:26;100437.78;;;11.74;100.00
38038;BME280;23843;51.320;12.340;2023-02-20T17:08:53;100449.28;;;11.59;100.00
38038;BME280;23843;51.320;12.340;2023-02-20T17:11:18;100459.53;;;11.49;100.00
38038;BME280;23843;51.320;12.340;2023-02-20T17:13:44;100464.06;;;11.47;100.00
38038;BME280;23843;51.320;12.340;2023-02-20T17:16:12;100466.13;;;11.42;100.00
38038;BME280;23843;51.320;12.340;2023-02-20T17:18:39;100478.69;;;11.23;100.00
38038;BME280;23843;51.320;12.340;2023-02-20T17:21:07;100475.97;;;11.24;100.00
38038;BME280;23843;51.320;12.340;2023-02-20T17:23:32;100476.03;;;11.23;100.00
38038;BME280;23843;51.320;12.340;2023-02-20T17:25:59;100480.75;;;11.18;100.00
38038;BME280;23843;51.320;12.340;2023-02-20T17:28:25;100480.81;;;11.16;100.00
38038;BME280;23843;51.320;12.340;2023-02-20T17:30:51;100468.69;;;11.12;100.00
38038;BME280;23843;51.320;12.340;2023-02-20T17:33:16;100468.00;;;11.08;100.00
38038;BME280;23843;51.320;12.340;2023-02-20T17:35:44;100464.97;;;10.99;100.00
38038;BME280;23843;51.320;12.340;2023-02-20T17:38:09;100454.72;;;10.92;100.00
38038;BME280;23843;51.320;12.340;2023-02-20T17:40:35;100468.13;;;10.89;100.00
38038;BME280;23843;51.320;12.340;2023-02-20T17:43:09;100450.34;;;10.91;100.00
38038;BME280;23843;51.320;12.340;2023-02-20T17:45:37;100451.38;;;10.89;100.00
38038;BME280;23843;51.320;12.340;2023-02-20T17:48:03;100447.25;;;10.83;100.00
38038;BME280;23843;51.320;12.340;2023-02-20T17:50:29;100454.44;;;10.81;100.00
38038;BME280;23843;51.320;12.340;2023-02-20T17:52:56;100464.19;;;10.81;100.00
38038;BME280;23843;51.320;12.340;2023-02-20T17:55:24;100458.34;;;10.74;100.00
38038;BME280;23843;51.320;12.340;2023-02-20T17:57:51;100453.81;;;10.76;100.00
38038;BME280;23843;51.320;12.340;2023-02-20T18:00:19;100466.22;;;10.76;100.00
38038;BME280;23843;51.320;12.340;2023-02-20T18:02:45;100463.09;;;10.67;100.00
38038;BME280;23843;51.320;12.340;2023-02-20T18:05:11;100459.69;;;10.65;100.00
38038;BME280;23843;51.320;12.340;2023-02-20T18:07:37;100456.28;;;10.63;100.00
38038;BME280;23843;51.320;12.340;2023-02-20T18:10:03;100451.22;;;10.59;100.00
38038;BME280;23843;51.320;12.340;2023-02-20T18:12:31;100459.78;;;10.64;100.00
38038;BME280;23843;51.320;12.340;2023-02-20T18:14:57;100469.75;;;10.59;100.00
38038;BME280;23843;51.320;12.340;2023-02-20T18:17:24;100484.78;;;10.58;100.00
38038;BME280;23843;51.320;12.340;2023-02-20T18:19:50;100492.41;;;10.64;100.00
38038;BME280;23843;51.320;12.340;2023-02-20T18:22:18;100484.09;;;10.55;100.00
38038;BME280;23843;51.320;12.340;2023-02-20T18:24:44;100478.50;;;10.61;100.00
38038;BME280;23843;51.320;12.340;2023-02-20T18:27:12;100483.94;;;10.58;100.00